Impacts TAF Board
For situational awareness. Not to be used for flight planning purposes.
IDs:

KDCA - Washington/National, VA, US

Issued at 1502 UTC 24 Sep 2018
Updated at 1659 UTC 24 Sep 2018
Potential Impact None Slight Moderate High
Time1652Z 24/17Z 24/18Z 24/19Z 24/20Z 24/21Z 24/22Z 24/23Z 25/00Z 25/01Z 25/02Z 25/03Z 25/04Z 25/05Z>>
Type OBS PRVL PRVL PRVL PRVL PRVL PRVL PRVL PRVL PRVL PRVL PRVL PRVL PRVL
VIS 10 5 5 5 5 5 5 5 5 5 5 5 5 5
CIG 14 10 10 10 10 10 10 10 8 8 8 8 8 8
Cover OVC OVC OVC OVC OVC OVC OVC OVC OVC OVC OVC OVC OVC OVC
FltCat MVFR MVFR MVFR MVFR MVFR MVFR MVFR MVFR IFR IFR IFR IFR IFR IFR
WX -RA -RA -RA -RA -RA -RA -RA -RA -RA -RA -RA -RA -RA -RA
WDir 70 50 50 50 50 50 50 50 80 80 80 80 80 80
WSpd 13 10 10 10 10 10 10 10 11 11 11 11 11 11
WGst 20 -- -- -- -- -- -- -- -- -- -- -- -- --
Raw TAF
KDCA 241502Z 2415/2518 05010KT 5SM -RA OVC010
  FM250000 08011KT 5SM -RA OVC008
  FM250600 09009KT P6SM OVC008
  FM251200 13006KT P6SM -RA OVC008
  FM251700 18007KT P6SM -RA OVC015


Raw METAR
KDCA 241652Z 07013G20KT 10SM -RA OVC014 20/17 A3035 RMK AO2 RAE15B52 SLP277 P0000 T02000167
KDCA 241552Z 06008KT 7SM -RA OVC011 19/17 A3035 RMK AO2 SLP278 P0004 T01940172
KDCA 241528Z 05010KT 7SM RA OVC009 19/17 A3035 RMK AO2 CIG 007V012 P0002 T01890172
KDCA 241452Z 05009KT 7SM -RA OVC010 19/17 A3035 RMK AO2 CIG 007V014 SLP278 P0003 60007 T01890172 51011
KDCA 241441Z 05010KT 7SM -RA OVC010 19/17 A3036 RMK AO2 CIG 006V014 P0002 T01890172
KDCA 241352Z 04010KT 5SM -RA BR BKN009 OVC012 19/17 A3035 RMK AO2 CIG 006V011 SLP276 P0003 T01890167
KDCA 241344Z 05008KT 5SM -RA BR OVC009 19/17 A3035 RMK AO2 CIG 006V014 P0002 T01890167

METAR Board
Radar Display
Forecast Discussion
For situational awareness. Not to be used for flight planning purposes.